createdAt,value
2023-09-09T00:00:40.653Z,22.20
2023-09-09T00:03:08.298Z,22.10
2023-09-09T00:05:35.704Z,22.10
2023-09-09T00:08:03.114Z,22.10
2023-09-09T00:10:31.338Z,22.10
2023-09-09T00:12:58.826Z,22.10
2023-09-09T00:15:26.889Z,22.10
2023-09-09T00:17:54.273Z,22.00
2023-09-09T00:20:29.842Z,22.10
2023-09-09T00:22:57.394Z,22.00
2023-09-09T00:25:24.761Z,22.00
2023-09-09T00:27:52.327Z,22.00
2023-09-09T00:30:19.569Z,22.00
2023-09-09T00:32:46.772Z,22.00
2023-09-09T00:35:14.062Z,22.00
2023-09-09T00:37:41.344Z,21.90
2023-09-09T00:40:09.093Z,21.90
2023-09-09T00:42:36.332Z,21.90
2023-09-09T00:45:03.878Z,21.80
2023-09-09T00:47:31.488Z,21.80
2023-09-09T00:49:59.935Z,21.80
2023-09-09T00:52:27.950Z,21.80
2023-09-09T00:54:55.441Z,21.70
2023-09-09T00:57:22.698Z,21.70
2023-09-09T00:59:50.007Z,21.70
2023-09-09T01:02:17.396Z,21.60
2023-09-09T01:04:44.842Z,21.60
2023-09-09T01:07:12.400Z,21.60
2023-09-09T01:09:39.647Z,21.50
2023-09-09T01:12:12.865Z,21.50
2023-09-09T01:14:41.225Z,21.50
2023-09-09T01:17:09.252Z,21.50
2023-09-09T01:19:37.046Z,21.40
2023-09-09T01:22:09.698Z,21.40
2023-09-09T01:24:39.893Z,21.40
2023-09-09T01:27:07.555Z,21.40
2023-09-09T01:29:35.123Z,21.30
2023-09-09T01:32:02.361Z,21.30
2023-09-09T01:34:29.572Z,21.30
2023-09-09T01:36:56.727Z,21.30
2023-09-09T01:39:24.543Z,21.30
2023-09-09T01:41:51.796Z,21.20
2023-09-09T01:44:19.137Z,21.20
2023-09-09T01:46:46.307Z,21.20
2023-09-09T01:49:13.610Z,21.20
2023-09-09T01:51:40.900Z,21.20
2023-09-09T01:54:08.067Z,21.20
2023-09-09T01:56:35.228Z,21.20
2023-09-09T01:59:02.636Z,21.10
2023-09-09T02:01:30.756Z,21.20
2023-09-09T02:03:59.233Z,21.10
2023-09-09T02:06:28.263Z,21.10
2023-09-09T02:08:55.630Z,21.10
2023-09-09T02:11:22.819Z,21.10
2023-09-09T02:13:50.118Z,21.10
2023-09-09T02:16:18.504Z,21.00
2023-09-09T02:18:45.708Z,21.00
2023-09-09T02:21:12.828Z,21.00
2023-09-09T02:23:41.082Z,21.00
2023-09-09T02:26:09.909Z,20.90
2023-09-09T02:28:38.046Z,20.90
2023-09-09T02:31:05.357Z,21.00
2023-09-09T02:33:32.761Z,20.90
2023-09-09T02:36:01.234Z,20.90
2023-09-09T02:38:28.494Z,20.90
2023-09-09T02:40:56.030Z,20.90
2023-09-09T02:43:23.165Z,20.90
2023-09-09T02:45:50.930Z,20.80
2023-09-09T02:48:18.844Z,20.80
2023-09-09T02:50:46.659Z,20.80
2023-09-09T02:53:13.856Z,20.80
2023-09-09T02:55:40.998Z,20.80
2023-09-09T02:58:12.066Z,20.80
2023-09-09T03:00:39.429Z,20.80
2023-09-09T03:03:08.376Z,20.70
2023-09-09T03:05:36.772Z,20.70
2023-09-09T03:08:04.630Z,20.70
2023-09-09T03:10:32.489Z,20.70
2023-09-09T03:13:00.038Z,20.60
2023-09-09T03:15:27.165Z,20.60
2023-09-09T03:17:54.399Z,20.60
2023-09-09T03:20:23.133Z,20.60
2023-09-09T03:22:52.404Z,20.60
2023-09-09T03:25:19.572Z,20.50
2023-09-09T03:27:46.798Z,20.50
2023-09-09T03:30:14.157Z,20.50
2023-09-09T03:32:41.384Z,20.50
2023-09-09T03:35:08.830Z,20.50
2023-09-09T03:37:35.984Z,20.50
2023-09-09T03:40:04.758Z,20.40
2023-09-09T03:42:34.063Z,20.40
2023-09-09T03:45:01.355Z,20.40
2023-09-09T03:47:29.572Z,20.40
2023-09-09T03:49:57.220Z,20.40
2023-09-09T03:52:24.429Z,20.40
2023-09-09T03:54:51.669Z,20.40
2023-09-09T03:57:19.141Z,20.30
2023-09-09T03:59:48.156Z,20.30
2023-09-09T04:02:15.409Z,20.30
2023-09-09T04:04:44.686Z,20.30
2023-09-09T04:07:12.281Z,20.30
2023-09-09T04:09:42.326Z,20.30
2023-09-09T04:12:11.141Z,20.30
2023-09-09T04:14:40.526Z,20.30
2023-09-09T04:17:08.224Z,20.30
2023-09-09T04:19:36.311Z,20.30
2023-09-09T04:22:03.685Z,20.30
2023-09-09T04:24:31.394Z,20.30
2023-09-09T04:26:58.692Z,20.30
2023-09-09T04:29:26.000Z,20.20
2023-09-09T04:31:53.715Z,20.20
2023-09-09T04:34:20.965Z,20.30
2023-09-09T04:36:48.265Z,20.30
2023-09-09T04:39:17.830Z,20.20
2023-09-09T04:41:46.860Z,20.30
2023-09-09T04:44:14.883Z,20.30
2023-09-09T04:46:42.038Z,20.20
2023-09-09T04:49:09.791Z,20.20
2023-09-09T04:51:37.329Z,20.30
2023-09-09T04:54:05.156Z,20.20
2023-09-09T04:56:32.329Z,20.30
2023-09-09T04:58:59.752Z,20.30
2023-09-09T05:01:27.102Z,20.30
2023-09-09T05:03:54.338Z,20.30
2023-09-09T05:06:21.572Z,20.30
2023-09-09T05:08:49.139Z,20.30
2023-09-09T05:11:16.414Z,20.30
2023-09-09T05:13:44.159Z,20.20
2023-09-09T05:16:11.480Z,20.20
2023-09-09T05:18:38.741Z,20.20
2023-09-09T05:21:05.935Z,20.20
2023-09-09T05:23:33.272Z,20.20
2023-09-09T05:26:00.540Z,20.20
2023-09-09T05:28:27.810Z,20.20
2023-09-09T05:30:57.498Z,20.20
2023-09-09T05:33:24.820Z,20.20
2023-09-09T05:35:52.231Z,20.20
2023-09-09T05:38:19.701Z,20.30
2023-09-09T05:40:50.643Z,20.30
2023-09-09T05:43:18.057Z,20.30
2023-09-09T05:45:45.817Z,20.30
2023-09-09T05:48:13.543Z,20.30
2023-09-09T05:50:41.220Z,20.40
2023-09-09T05:53:08.532Z,20.40
2023-09-09T05:55:35.885Z,20.40
2023-09-09T05:58:03.373Z,20.50
2023-09-09T06:00:30.794Z,20.50
2023-09-09T06:02:58.031Z,20.50
2023-09-09T06:05:25.432Z,20.50
2023-09-09T06:07:52.798Z,20.60
2023-09-09T06:10:20.492Z,20.60
2023-09-09T06:12:47.705Z,20.70
2023-09-09T06:15:15.034Z,20.70
2023-09-09T06:17:42.894Z,20.70
2023-09-09T06:20:11.654Z,20.80
2023-09-09T06:22:40.035Z,20.80
2023-09-09T06:25:07.525Z,20.90
2023-09-09T06:27:35.397Z,20.90
2023-09-09T06:30:02.631Z,20.90
2023-09-09T06:32:30.036Z,21.00
2023-09-09T06:34:57.337Z,21.10
2023-09-09T06:37:25.360Z,21.10
2023-09-09T06:39:52.541Z,21.20
2023-09-09T06:42:19.712Z,21.20
2023-09-09T06:44:51.808Z,21.30
2023-09-09T06:47:19.190Z,21.30
2023-09-09T06:49:46.407Z,21.40
2023-09-09T06:52:13.655Z,21.40
2023-09-09T06:54:40.803Z,21.50
2023-09-09T06:57:07.922Z,21.60
2023-09-09T06:59:37.502Z,21.70
2023-09-09T07:02:07.039Z,21.70
2023-09-09T07:04:34.555Z,21.80
2023-09-09T07:07:12.861Z,21.80
2023-09-09T07:09:41.119Z,21.90
2023-09-09T07:12:10.135Z,22.00
2023-09-09T07:14:39.893Z,22.10
2023-09-09T07:17:08.905Z,22.10
2023-09-09T07:19:36.315Z,22.20
2023-09-09T07:22:03.611Z,22.30
2023-09-09T07:24:30.770Z,22.30
2023-09-09T07:26:58.821Z,22.40
2023-09-09T07:29:26.142Z,22.50
2023-09-09T07:31:53.360Z,22.60
2023-09-09T07:34:20.838Z,22.70
2023-09-09T07:36:49.117Z,22.70
2023-09-09T07:39:16.278Z,22.80
2023-09-09T07:41:43.570Z,22.90
2023-09-09T07:44:10.852Z,23.00
2023-09-09T07:46:38.232Z,23.00
2023-09-09T07:49:05.480Z,23.10
2023-09-09T07:51:32.636Z,23.20
2023-09-09T07:53:59.812Z,23.30
2023-09-09T07:56:27.296Z,23.40
2023-09-09T07:58:54.552Z,23.40
2023-09-09T08:01:22.003Z,23.50
2023-09-09T08:03:49.409Z,23.50
2023-09-09T08:06:17.490Z,23.60
2023-09-09T08:08:44.914Z,23.70
2023-09-09T08:11:13.023Z,23.80
2023-09-09T08:13:40.509Z,23.90
2023-09-09T08:16:08.270Z,23.90
2023-09-09T08:18:35.565Z,24.00
2023-09-09T08:21:04.491Z,24.10
2023-09-09T08:23:31.655Z,24.20
2023-09-09T08:25:58.915Z,24.40
2023-09-09T08:28:26.196Z,24.40
2023-09-09T08:30:58.061Z,24.60
2023-09-09T08:33:25.350Z,24.70
2023-09-09T08:35:52.747Z,24.80
2023-09-09T08:38:20.064Z,25.00
2023-09-09T08:40:55.662Z,25.00
2023-09-09T08:43:33.145Z,25.10
2023-09-09T08:46:03.713Z,25.30
2023-09-09T08:48:32.545Z,25.40
2023-09-09T08:51:01.326Z,25.50
2023-09-09T08:53:29.718Z,25.60
2023-09-09T08:55:57.046Z,25.70
2023-09-09T08:58:24.984Z,25.80
2023-09-09T09:00:52.584Z,25.90
2023-09-09T09:03:20.389Z,26.00
2023-09-09T09:05:48.177Z,26.10
2023-09-09T09:08:15.602Z,26.20
2023-09-09T09:10:42.966Z,26.30
2023-09-09T09:13:10.322Z,26.40
2023-09-09T09:15:39.904Z,26.50
2023-09-09T09:18:08.906Z,26.60
2023-09-09T09:20:37.850Z,26.70
2023-09-09T09:23:05.944Z,26.80
2023-09-09T09:25:37.530Z,26.90
2023-09-09T09:28:05.211Z,26.90
2023-09-09T09:30:32.740Z,27.00
2023-09-09T09:33:00.091Z,27.10
2023-09-09T09:35:28.140Z,27.20
2023-09-09T09:37:59.065Z,27.30
2023-09-09T09:40:26.944Z,27.40
2023-09-09T09:42:54.677Z,27.40
2023-09-09T09:45:28.732Z,27.50
2023-09-09T09:47:56.895Z,27.60
2023-09-09T09:50:24.212Z,27.60
2023-09-09T09:53:01.533Z,27.70
2023-09-09T09:55:29.675Z,27.70
2023-09-09T09:57:58.076Z,27.80
2023-09-09T10:00:25.838Z,27.80
2023-09-09T10:02:54.077Z,27.80
2023-09-09T10:05:24.855Z,27.80
2023-09-09T10:07:53.612Z,27.90
2023-09-09T10:10:22.587Z,27.90
2023-09-09T10:12:53.024Z,28.00
2023-09-09T10:15:20.877Z,28.10
2023-09-09T10:17:50.371Z,28.10
2023-09-09T10:20:18.552Z,28.10
2023-09-09T10:22:48.445Z,28.20
2023-09-09T10:25:16.068Z,28.20
2023-09-09T10:27:43.940Z,28.20
2023-09-09T10:30:11.696Z,28.20
2023-09-09T10:32:39.697Z,28.20
2023-09-09T10:35:07.666Z,28.20
2023-09-09T10:37:36.540Z,28.20
2023-09-09T10:40:07.538Z,28.30
2023-09-09T10:42:37.795Z,28.30
2023-09-09T10:45:23.163Z,28.30
2023-09-09T10:48:02.443Z,28.30
2023-09-09T10:50:45.216Z,28.30
2023-09-09T10:53:16.788Z,28.30
2023-09-09T10:55:44.762Z,28.40
2023-09-09T10:58:15.968Z,28.40
2023-09-09T11:00:44.846Z,28.40
2023-09-09T11:03:15.956Z,28.50
2023-09-09T11:06:01.478Z,28.50
2023-09-09T11:08:29.657Z,28.50
2023-09-09T11:11:16.298Z,28.60
2023-09-09T11:13:43.523Z,28.60
2023-09-09T11:16:32.246Z,28.70
2023-09-09T11:19:01.715Z,28.80
2023-09-09T11:21:28.970Z,28.80
2023-09-09T11:23:57.405Z,28.80
2023-09-09T11:26:24.783Z,28.90
2023-09-09T11:28:52.424Z,28.90
2023-09-09T11:31:19.750Z,29.00
2023-09-09T11:33:47.079Z,29.00
2023-09-09T11:36:20.762Z,29.10
2023-09-09T11:38:48.061Z,29.10
2023-09-09T11:41:22.281Z,29.10
2023-09-09T11:44:09.720Z,29.20
2023-09-09T11:46:39.945Z,29.20
2023-09-09T11:49:07.546Z,29.20
2023-09-09T11:51:35.709Z,29.30
2023-09-09T11:54:03.673Z,29.30
2023-09-09T11:56:33.233Z,29.30
2023-09-09T11:59:06.616Z,29.30
2023-09-09T12:01:44.138Z,29.40
2023-09-09T12:04:11.939Z,29.40
2023-09-09T12:06:40.108Z,29.50
2023-09-09T12:09:08.393Z,29.50
2023-09-09T12:11:36.311Z,29.60
2023-09-09T12:14:03.753Z,29.60
2023-09-09T12:16:32.233Z,29.70
2023-09-09T12:18:59.662Z,29.70
2023-09-09T12:21:26.946Z,29.80
2023-09-09T12:23:59.026Z,29.80
2023-09-09T12:26:29.534Z,29.90
2023-09-09T12:29:12.871Z,29.90
2023-09-09T12:31:54.279Z,29.90
2023-09-09T12:34:22.425Z,29.90
2023-09-09T12:36:50.387Z,29.90
2023-09-09T12:39:27.758Z,30.00
2023-09-09T12:42:05.102Z,29.90
2023-09-09T12:44:33.415Z,30.00
2023-09-09T12:47:03.988Z,30.00
2023-09-09T12:49:31.682Z,30.00
2023-09-09T12:51:58.934Z,30.00
2023-09-09T12:54:26.228Z,30.00
2023-09-09T12:56:53.427Z,30.00
2023-09-09T12:59:20.810Z,30.10
2023-09-09T13:01:49.918Z,30.10
2023-09-09T13:04:17.192Z,30.10
2023-09-09T13:06:44.392Z,30.10
2023-09-09T13:09:12.664Z,30.10
2023-09-09T13:11:40.430Z,30.10
2023-09-09T13:16:43.279Z,30.20
2023-09-09T13:19:10.609Z,30.20
2023-09-09T13:21:37.840Z,30.20
2023-09-09T13:24:05.237Z,30.20
2023-09-09T13:26:32.477Z,30.20
2023-09-09T13:29:00.133Z,30.20
2023-09-09T13:31:27.408Z,30.20
2023-09-09T13:33:54.637Z,30.20
2023-09-09T13:36:21.915Z,30.20
2023-09-09T13:38:49.160Z,30.20
2023-09-09T13:41:16.404Z,30.20
2023-09-09T13:43:43.736Z,30.10
2023-09-09T13:46:12.262Z,30.10
2023-09-09T13:48:39.983Z,30.00
2023-09-09T13:51:09.458Z,30.00
2023-09-09T13:53:36.713Z,30.00
2023-09-09T13:56:04.157Z,29.90
2023-09-09T13:58:31.542Z,29.90
2023-09-09T14:00:58.888Z,29.90
2023-09-09T14:03:26.277Z,29.80
2023-09-09T14:05:56.783Z,29.80
2023-09-09T14:08:24.017Z,29.80
2023-09-09T14:10:51.321Z,29.80
2023-09-09T14:13:18.518Z,29.80
2023-09-09T14:15:46.665Z,29.80
2023-09-09T14:18:15.103Z,29.80
2023-09-09T14:20:46.109Z,29.80
2023-09-09T14:23:13.378Z,29.80
2023-09-09T14:25:43.818Z,29.90
2023-09-09T14:28:11.075Z,29.90
2023-09-09T14:30:38.415Z,29.90
2023-09-09T14:33:08.172Z,29.90
2023-09-09T14:35:35.476Z,30.00
2023-09-09T14:38:02.800Z,30.00
2023-09-09T14:40:29.969Z,30.00
2023-09-09T14:42:57.123Z,30.10
2023-09-09T14:45:24.256Z,30.20
2023-09-09T14:47:51.591Z,30.20
2023-09-09T14:50:18.773Z,30.30
2023-09-09T14:52:45.999Z,30.30
2023-09-09T14:55:13.256Z,30.30
2023-09-09T14:57:40.550Z,30.30
2023-09-09T15:00:07.991Z,30.30
2023-09-09T15:02:35.493Z,30.40
2023-09-09T15:05:02.873Z,30.40
2023-09-09T15:07:29.975Z,30.40
2023-09-09T15:09:57.197Z,30.40
2023-09-09T15:12:24.362Z,30.40
2023-09-09T15:14:51.611Z,30.40
2023-09-09T15:17:18.833Z,30.40
2023-09-09T15:19:46.150Z,30.40
2023-09-09T15:22:13.424Z,30.40
2023-09-09T15:24:40.727Z,30.40
2023-09-09T15:27:07.880Z,30.40
2023-09-09T15:29:35.202Z,30.40
2023-09-09T15:32:02.452Z,30.50
2023-09-09T15:34:29.684Z,30.50
2023-09-09T15:36:56.890Z,30.50
2023-09-09T15:39:24.103Z,30.50
2023-09-09T15:41:51.179Z,30.50
2023-09-09T15:44:18.300Z,30.50
2023-09-09T15:46:45.510Z,30.50
2023-09-09T15:49:13.288Z,30.50
2023-09-09T15:51:40.451Z,30.40
2023-09-09T15:54:07.592Z,30.40
2023-09-09T15:56:34.747Z,30.30
2023-09-09T15:59:02.046Z,30.30
2023-09-09T16:01:29.382Z,30.30
2023-09-09T16:03:56.720Z,30.20
2023-09-09T16:06:23.932Z,30.20
2023-09-09T16:08:51.195Z,30.10
2023-09-09T16:11:18.365Z,30.00
2023-09-09T16:13:45.586Z,30.00
2023-09-09T16:16:12.999Z,29.90
2023-09-09T16:18:41.454Z,29.80
2023-09-09T16:21:09.007Z,29.80
2023-09-09T16:23:36.199Z,29.70
2023-09-09T16:26:03.526Z,29.60
2023-09-09T16:28:30.815Z,29.50
2023-09-09T16:30:58.107Z,29.40
2023-09-09T16:33:25.458Z,29.30
2023-09-09T16:35:52.777Z,29.20
2023-09-09T16:38:20.156Z,29.10
2023-09-09T16:40:52.705Z,29.10
2023-09-09T16:43:20.053Z,29.00
2023-09-09T16:45:47.310Z,28.90
2023-09-09T16:48:14.807Z,28.90
2023-09-09T16:50:42.080Z,28.80
2023-09-09T16:53:10.972Z,28.70
2023-09-09T16:55:38.154Z,28.70
2023-09-09T16:58:05.542Z,28.60
2023-09-09T17:00:32.870Z,28.50
2023-09-09T17:03:00.134Z,28.40
2023-09-09T17:05:27.756Z,28.30
2023-09-09T17:07:55.369Z,28.20
2023-09-09T17:10:22.710Z,28.10
2023-09-09T17:12:50.123Z,28.00
2023-09-09T17:15:17.534Z,27.90
2023-09-09T17:17:44.915Z,27.80
2023-09-09T17:20:12.316Z,27.70
2023-09-09T17:22:40.741Z,27.60
2023-09-09T17:25:08.103Z,27.40
2023-09-09T17:27:35.620Z,27.30
2023-09-09T17:30:03.838Z,27.30
2023-09-09T17:32:31.096Z,27.10
2023-09-09T17:34:58.552Z,27.00
2023-09-09T17:37:26.120Z,26.80
2023-09-09T17:39:54.763Z,26.70
2023-09-09T17:42:21.994Z,26.60
2023-09-09T17:44:49.446Z,26.40
2023-09-09T17:47:16.765Z,26.30
2023-09-09T17:49:47.144Z,26.20
2023-09-09T17:52:14.407Z,26.00
2023-09-09T17:54:41.715Z,25.90
2023-09-09T17:57:09.007Z,25.80
2023-09-09T17:59:36.721Z,25.70
2023-09-09T18:02:06.732Z,25.60
2023-09-09T18:04:34.300Z,25.40
2023-09-09T18:07:04.244Z,25.40
2023-09-09T18:09:31.599Z,25.30
2023-09-09T18:11:58.966Z,25.20
2023-09-09T18:14:26.183Z,25.10
2023-09-09T18:16:53.630Z,25.00
2023-09-09T18:19:21.031Z,25.00
2023-09-09T18:21:49.059Z,24.90
2023-09-09T18:24:16.890Z,24.80
2023-09-09T18:26:45.376Z,24.80
2023-09-09T18:29:15.424Z,24.70
2023-09-09T18:31:44.538Z,24.70
2023-09-09T18:34:11.848Z,24.60
2023-09-09T18:36:39.065Z,24.60
2023-09-09T18:39:06.421Z,24.50
2023-09-09T18:41:33.670Z,24.50
2023-09-09T18:44:00.978Z,24.40
2023-09-09T18:46:31.386Z,24.40
2023-09-09T18:48:58.681Z,24.30
2023-09-09T18:51:25.848Z,24.30
2023-09-09T18:53:53.053Z,24.20
2023-09-09T18:56:20.286Z,24.20
2023-09-09T18:58:47.685Z,24.10
2023-09-09T19:01:15.143Z,24.10
2023-09-09T19:03:42.668Z,24.10
2023-09-09T19:06:10.520Z,24.00
2023-09-09T19:08:38.316Z,24.00
2023-09-09T19:11:07.630Z,24.00
2023-09-09T19:13:35.015Z,23.90
2023-09-09T19:16:02.391Z,23.90
2023-09-09T19:18:30.364Z,23.80
2023-09-09T19:20:57.677Z,23.80
2023-09-09T19:23:29.113Z,23.80
2023-09-09T19:25:56.368Z,23.70
2023-09-09T19:28:24.536Z,23.70
2023-09-09T19:30:51.858Z,23.70
2023-09-09T19:33:19.299Z,23.60
2023-09-09T19:35:46.660Z,23.60
2023-09-09T19:38:15.009Z,23.60
2023-09-09T19:40:42.264Z,23.50
2023-09-09T19:43:09.708Z,23.50
2023-09-09T19:45:39.213Z,23.50
2023-09-09T19:48:06.824Z,23.40
2023-09-09T19:50:34.085Z,23.40
2023-09-09T19:53:03.242Z,23.40
2023-09-09T19:55:30.549Z,23.30
2023-09-09T19:57:57.824Z,23.30
2023-09-09T20:00:25.363Z,23.30
2023-09-09T20:02:53.117Z,23.20
2023-09-09T20:05:20.412Z,23.20
2023-09-09T20:07:47.650Z,23.20
2023-09-09T20:10:14.938Z,23.20
2023-09-09T20:12:42.213Z,23.10
2023-09-09T20:15:09.501Z,23.10
2023-09-09T20:17:36.777Z,23.20
2023-09-09T20:20:04.467Z,23.10
2023-09-09T20:22:31.750Z,23.10
2023-09-09T20:24:58.936Z,23.20
2023-09-09T20:27:26.078Z,23.10
2023-09-09T20:29:53.266Z,23.10
2023-09-09T20:32:20.601Z,23.00
2023-09-09T20:34:51.011Z,23.00
2023-09-09T20:37:18.272Z,23.00
2023-09-09T20:39:45.718Z,23.00
2023-09-09T20:42:13.081Z,22.90
2023-09-09T20:44:40.945Z,22.90
2023-09-09T20:47:08.174Z,22.90
2023-09-09T20:49:35.510Z,22.80
2023-09-09T20:52:03.087Z,22.80
2023-09-09T20:54:30.274Z,22.80
2023-09-09T20:56:58.935Z,22.70
2023-09-09T20:59:26.345Z,22.60
2023-09-09T21:01:53.517Z,22.60
2023-09-09T21:04:20.777Z,22.50
2023-09-09T21:06:48.020Z,22.40
2023-09-09T21:09:15.291Z,22.40
2023-09-09T21:11:42.559Z,22.30
2023-09-09T21:14:09.816Z,22.30
2023-09-09T21:16:37.208Z,22.20
2023-09-09T21:19:04.565Z,22.20
2023-09-09T21:21:32.206Z,22.10
2023-09-09T21:23:59.397Z,22.10
2023-09-09T21:26:26.645Z,22.10
2023-09-09T21:28:53.955Z,22.00
2023-09-09T21:31:21.291Z,22.00
2023-09-09T21:33:48.608Z,22.00
2023-09-09T21:36:15.782Z,22.00
2023-09-09T21:38:43.045Z,22.00
2023-09-09T21:41:10.431Z,22.00
2023-09-09T21:43:37.793Z,22.00
2023-09-09T21:46:05.006Z,22.00
2023-09-09T21:48:32.354Z,22.00
2023-09-09T21:50:59.563Z,21.90
2023-09-09T21:53:28.770Z,21.90
2023-09-09T21:55:56.121Z,21.90
2023-09-09T21:58:24.876Z,21.90
2023-09-09T22:00:56.984Z,21.90
2023-09-09T22:03:24.364Z,21.80
2023-09-09T22:05:51.646Z,21.80
2023-09-09T22:08:20.870Z,21.70
2023-09-09T22:10:50.274Z,21.70
2023-09-09T22:13:17.714Z,21.70
2023-09-09T22:15:44.994Z,21.60
2023-09-09T22:18:12.275Z,21.60
2023-09-09T22:20:42.412Z,21.60
2023-09-09T22:23:10.292Z,21.50
2023-09-09T22:25:37.560Z,21.50
2023-09-09T22:28:05.152Z,21.40
2023-09-09T22:30:32.681Z,21.40
2023-09-09T22:33:00.010Z,21.40
2023-09-09T22:35:28.207Z,21.30
2023-09-09T22:37:56.333Z,21.30
2023-09-09T22:40:24.040Z,21.30
2023-09-09T22:42:51.252Z,21.20
2023-09-09T22:45:18.454Z,21.20
2023-09-09T22:47:45.742Z,21.10
2023-09-09T22:50:13.012Z,21.10
2023-09-09T22:52:40.184Z,21.00
2023-09-09T22:55:07.655Z,21.00
2023-09-09T22:57:35.313Z,21.00
2023-09-09T23:00:02.623Z,20.90
2023-09-09T23:02:30.104Z,20.90
2023-09-09T23:04:57.300Z,20.90
2023-09-09T23:07:25.474Z,20.90
2023-09-09T23:09:56.591Z,20.80
2023-09-09T23:12:24.008Z,20.80
2023-09-09T23:14:51.102Z,20.80
2023-09-09T23:17:18.301Z,20.80
2023-09-09T23:19:45.685Z,20.80
2023-09-09T23:22:12.949Z,20.80
2023-09-09T23:24:43.757Z,20.80
2023-09-09T23:27:10.926Z,20.80
2023-09-09T23:29:38.192Z,20.80
2023-09-09T23:32:05.718Z,20.80
2023-09-09T23:34:33.581Z,20.80
2023-09-09T23:37:00.799Z,20.70
2023-09-09T23:39:27.972Z,20.70
2023-09-09T23:41:55.813Z,20.70
2023-09-09T23:44:23.513Z,20.70
2023-09-09T23:46:50.724Z,20.70
2023-09-09T23:49:18.021Z,20.70
2023-09-09T23:51:45.208Z,20.70
2023-09-09T23:54:12.384Z,20.60
2023-09-09T23:56:39.545Z,20.60
2023-09-09T23:59:06.874Z,20.60
